createdAt,value
2018-02-06T00:04:57.559Z,19.13
2018-02-06T00:11:02.190Z,19.17
2018-02-06T00:17:07.864Z,24.60
2018-02-06T00:23:12.588Z,24.53
2018-02-06T00:29:17.959Z,24.07
2018-02-06T00:35:23.832Z,20.40
2018-02-06T00:41:28.381Z,22.20
2018-02-06T00:47:33.167Z,19.17
2018-02-06T00:53:38.416Z,20.27
2018-02-06T00:59:42.976Z,25.40
2018-02-06T01:05:47.482Z,22.40
2018-02-06T01:11:53.031Z,18.07
2018-02-06T01:17:58.419Z,21.90
2018-02-06T01:24:03.664Z,21.30
2018-02-06T01:30:08.188Z,20.80
2018-02-06T01:36:12.868Z,17.87
2018-02-06T01:42:17.970Z,14.70
2018-02-06T01:48:23.770Z,17.00
2018-02-06T01:54:28.456Z,16.20
2018-02-06T02:00:34.794Z,14.40
2018-02-06T02:06:39.303Z,12.77
2018-02-06T02:12:43.834Z,10.27
2018-02-06T02:18:48.588Z,14.27
2018-02-06T02:24:53.684Z,11.50
2018-02-06T02:30:58.163Z,8.73
2018-02-06T02:37:02.883Z,10.27
2018-02-06T04:38:37.940Z,17.70
2018-02-06T04:44:42.750Z,11.90
2018-02-06T04:50:47.264Z,9.60
2018-02-06T04:56:52.645Z,10.07
2018-02-06T05:02:57.306Z,9.50
2018-02-06T05:09:02.138Z,11.17
2018-02-06T05:15:06.637Z,9.47
2018-02-06T05:21:11.410Z,9.37
2018-02-06T05:27:15.895Z,12.23
2018-02-06T05:33:21.099Z,9.97
2018-02-06T05:39:25.854Z,10.83
2018-02-06T05:45:30.442Z,8.23
2018-02-06T05:51:34.956Z,11.23
2018-02-06T05:57:39.467Z,14.00
2018-02-06T06:03:44.146Z,12.53
2018-02-06T06:09:49.056Z,12.00
2018-02-06T06:15:55.036Z,15.50
2018-02-06T06:21:59.932Z,9.10
2018-02-06T06:28:04.507Z,12.13
2018-02-06T06:34:09.422Z,8.60
2018-02-06T06:40:13.987Z,8.83
2018-02-06T06:46:18.804Z,10.93
2018-02-06T06:52:24.488Z,12.13
2018-02-06T06:58:29.103Z,16.37
2018-02-06T07:04:33.624Z,20.70
2018-02-06T07:10:38.158Z,10.90
2018-02-06T07:16:43.439Z,11.00
2018-02-06T07:22:48.818Z,15.77
2018-02-06T07:28:53.807Z,21.10
2018-02-06T07:34:58.292Z,15.20
2018-02-06T07:41:02.926Z,14.23
2018-02-06T07:47:07.530Z,12.10
2018-02-06T07:53:12.164Z,11.93
2018-02-06T07:59:17.414Z,10.60
2018-02-06T08:05:21.928Z,6.83
2018-02-06T08:11:27.248Z,8.50
2018-02-06T08:17:31.778Z,8.53
2018-02-06T08:23:36.418Z,8.57
2018-02-06T08:29:40.937Z,9.20
2018-02-06T08:35:46.199Z,10.93
2018-02-06T08:41:51.096Z,14.10
2018-02-06T08:47:55.786Z,12.00
2018-02-06T08:54:00.380Z,14.23
2018-02-06T09:00:04.862Z,11.00
2018-02-06T09:06:09.362Z,12.47
2018-02-06T09:12:14.167Z,12.60
2018-02-06T09:18:19.561Z,15.87
2018-02-06T09:24:24.287Z,13.83
2018-02-06T09:30:28.811Z,11.03
2018-02-06T09:36:34.278Z,12.10
2018-02-06T09:42:38.851Z,9.73
2018-02-06T09:48:44.177Z,8.77
2018-02-06T09:54:49.435Z,10.20
2018-02-06T10:00:54.222Z,7.40
2018-02-06T10:06:59.586Z,8.70
2018-02-06T10:13:04.072Z,27.03
2018-02-06T10:19:08.587Z,18.43
2018-02-06T10:25:14.700Z,7.57
2018-02-06T10:31:19.736Z,9.10
2018-02-06T10:37:24.350Z,7.70
2018-02-06T10:43:29.069Z,7.90
2018-02-06T10:49:33.827Z,10.53
2018-02-06T10:55:38.372Z,50.33
2018-02-06T11:01:42.921Z,7.97
2018-02-06T11:07:47.409Z,9.90
2018-02-06T11:13:52.702Z,10.47
2018-02-06T11:19:57.322Z,10.10
2018-02-06T11:26:01.930Z,9.70
2018-02-06T11:32:06.426Z,9.50
2018-02-06T11:38:11.664Z,12.70
2018-02-06T11:44:16.149Z,13.53
2018-02-06T11:50:21.396Z,10.90
2018-02-06T11:56:26.029Z,10.63
2018-02-06T12:02:30.561Z,11.60
2018-02-06T12:08:35.812Z,12.10
2018-02-06T12:14:40.314Z,13.30
2018-02-06T12:20:45.912Z,15.43
2018-02-06T12:26:50.696Z,12.70
2018-02-06T12:32:55.957Z,16.90
2018-02-06T12:39:00.457Z,17.00
2018-02-06T12:45:04.949Z,21.23
2018-02-06T12:51:09.531Z,19.50
2018-02-06T12:57:14.122Z,20.00
2018-02-06T13:03:18.805Z,20.80
2018-02-06T13:09:23.857Z,17.97
2018-02-06T13:15:28.319Z,23.43
2018-02-06T13:21:32.821Z,22.90
2018-02-06T13:27:38.068Z,22.70
2018-02-06T13:33:42.542Z,19.70
2018-02-06T13:39:47.135Z,14.77
2018-02-06T13:45:52.071Z,22.03
2018-02-06T13:51:56.758Z,18.20
2018-02-06T13:58:01.258Z,19.07
2018-02-06T14:04:06.735Z,20.20
2018-02-06T14:10:11.255Z,17.77
2018-02-06T14:16:15.885Z,18.77
2018-02-06T14:22:20.681Z,17.67
2018-02-06T14:28:25.433Z,17.50
2018-02-06T14:34:30.063Z,13.70
2018-02-06T14:40:34.642Z,13.40
2018-02-06T14:46:39.876Z,20.30
2018-02-06T14:52:44.356Z,16.60
2018-02-06T14:58:48.851Z,17.73
2018-02-06T15:04:53.392Z,13.50
2018-02-06T15:10:58.109Z,15.63
2018-02-06T15:17:02.611Z,17.03
2018-02-06T15:23:07.224Z,16.67
2018-02-06T15:29:11.721Z,17.37
2018-02-06T15:35:16.307Z,24.60
2018-02-06T15:41:20.961Z,20.43
2018-02-06T15:47:25.581Z,15.90
2018-02-06T15:53:30.172Z,15.20
2018-02-06T15:59:35.484Z,14.67
2018-02-06T16:05:40.029Z,17.30
2018-02-06T16:11:44.523Z,19.10
2018-02-06T16:17:49.218Z,14.87
2018-02-06T16:23:53.868Z,18.00
2018-02-06T16:29:58.529Z,14.10
2018-02-06T16:36:03.061Z,13.90
2018-02-06T16:42:07.569Z,19.87
2018-02-06T16:48:12.198Z,16.83
2018-02-06T16:54:16.828Z,16.70
2018-02-06T17:00:23.025Z,19.60
2018-02-06T17:06:27.513Z,23.50
2018-02-06T17:12:32.827Z,24.23
2018-02-06T17:18:37.424Z,26.80
2018-02-06T17:24:41.914Z,87.40
2018-02-06T17:30:46.425Z,25.17
2018-02-06T17:36:51.015Z,20.27
2018-02-06T17:42:56.477Z,23.80
2018-02-06T17:49:01.128Z,25.37
2018-02-06T17:55:05.635Z,24.07
2018-02-06T18:01:10.118Z,24.30
2018-02-06T18:07:14.687Z,22.67
2018-02-06T18:13:20.115Z,19.30
2018-02-06T18:19:24.982Z,21.93
2018-02-06T18:25:29.567Z,21.40
2018-02-06T18:31:34.139Z,21.67
2018-02-06T18:37:38.907Z,22.00
2018-02-06T18:43:44.223Z,22.70
2018-02-06T18:49:48.703Z,23.47
2018-02-06T18:55:53.177Z,24.13
2018-02-06T19:01:57.672Z,19.50
2018-02-06T19:08:02.257Z,23.33
2018-02-06T19:14:06.755Z,21.30
2018-02-06T19:20:12.100Z,23.13
2018-02-06T19:26:17.048Z,24.07
2018-02-06T19:32:22.495Z,24.13
2018-02-06T19:38:27.828Z,27.00
2018-02-06T19:44:33.101Z,31.67
2018-02-06T19:50:37.640Z,27.77
2018-02-06T19:56:42.210Z,25.03
2018-02-06T20:02:47.583Z,24.33
2018-02-06T20:08:54.559Z,29.10
2018-02-06T20:14:59.172Z,33.60
2018-02-06T20:21:03.656Z,31.27
2018-02-06T20:27:08.199Z,30.73
2018-02-06T20:33:12.766Z,27.30
2018-02-06T20:39:17.867Z,29.23
2018-02-06T20:45:22.398Z,33.10
2018-02-06T20:51:26.996Z,37.00
2018-02-06T20:57:31.635Z,28.23
2018-02-06T21:03:36.143Z,31.20
2018-02-06T21:09:41.535Z,38.50
2018-02-06T21:15:46.053Z,34.63
2018-02-06T21:21:50.764Z,34.93
2018-02-06T21:27:55.516Z,35.87
2018-02-06T21:34:00.270Z,37.57
2018-02-06T21:40:04.826Z,31.63
2018-02-06T21:46:09.456Z,32.83
2018-02-06T21:52:14.069Z,33.23
2018-02-06T21:58:18.592Z,36.63
2018-02-06T22:04:23.542Z,34.97
2018-02-06T22:10:29.586Z,31.10
2018-02-06T22:16:34.389Z,32.00
2018-02-06T22:22:39.658Z,35.27
2018-02-06T22:28:44.323Z,41.73
2018-02-06T22:34:49.863Z,36.60
2018-02-06T22:40:54.486Z,40.07
2018-02-06T22:46:59.015Z,37.67
2018-02-06T22:53:04.261Z,38.00
2018-02-06T22:59:08.858Z,34.17
2018-02-06T23:05:13.357Z,35.90
2018-02-06T23:11:17.980Z,37.13
2018-02-06T23:17:23.260Z,39.97
2018-02-06T23:23:28.201Z,38.70
2018-02-06T23:29:32.791Z,33.83
2018-02-06T23:35:37.304Z,41.73
2018-02-06T23:41:42.652Z,42.10
2018-02-06T23:47:47.275Z,44.77
2018-02-06T23:53:51.908Z,41.60
2018-02-06T23:59:56.427Z,39.70
